Time;durP1;ratioP1;P1;durP2;ratioP2;P2;SDS_P1;SDS_P2;PMS_P1;PMS_P2;Temp;Humidity;BMP_temperature;BMP_pressure;BME280_temperature;BME280_humidity;BME280_pressure;Samples;Min_cycle;Max_cycle;Signal;HPM_P1;HPM_P2
2024/01/23 00:00:11;;;;;;;;;;;;;;;;;;53251;1254;1005325;-81
2024/01/23 00:02:57;;;;;;;;;;;;;;;;;;53231;1253;1039297;-82
2024/01/23 00:05:24;;;;;;;;;;;;;;;;;;54161;1252;1003390;-81
2024/01/23 00:07:51;;;;;;;;;;;;;;;;;;54160;1254;1045641;-82
2024/01/23 00:10:19;;;;;;;;;;;;;;;;;;54119;1253;1003071;-81
2024/01/23 00:12:46;;;;;;;;;;;;;;;;;;54149;1251;1060353;-82
2024/01/23 00:15:13;;;;;;;;;;;;;;;;;;53363;1251;1005554;-81
2024/01/23 00:17:39;;;;;;;;;;;;;;;;;;53301;1252;1056228;-82
2024/01/23 00:20:06;;;;;;;;;;;;;;;;;;53261;1254;1005167;-82
2024/01/23 00:22:33;;;;;;;;;;;;;;;;;;53229;1251;1058269;-82
2024/01/23 00:25:02;;;;;;;;;;;;;;;;;;53265;1254;1004867;-81
2024/01/23 00:27:28;;;;;;;;;;;;;;;;;;53213;1255;1039922;-82
2024/01/23 00:29:55;;;;;;;;;;;;;;;;;;53353;1255;1004879;-82
2024/01/23 00:32:23;;;;;;;;;;;;;;;;;;54141;1251;1045745;-82
2024/01/23 00:34:50;;;;;;;;;;;;;;;;;;54197;1253;1003262;-81
2024/01/23 00:37:16;;;;;;;;;;;;;;;;;;53232;1254;1004624;-82
2024/01/23 00:39:43;;;;;;;;;;;;;;;;;;53180;1253;1063121;-81
2024/01/23 00:42:09;;;;;;;;;;;;;;;;;;53257;1253;1005523;-82
2024/01/23 00:44:36;;;;;;;;;;;;;;;;;;53220;1254;1057006;-82
2024/01/23 00:47:02;;;;;;;;;;;;;;;;;;53174;1255;1005311;-81
2024/01/23 00:49:29;;;;;;;;;;;;;;;;;;53208;1251;1057860;-82
2024/01/23 00:51:55;;;;;;;;;;;;;;;;;;53223;1256;1005208;-81
2024/01/23 00:54:22;;;;;;;;;;;;;;;;;;53218;1257;1038116;-81
2024/01/23 00:56:48;;;;;;;;;;;;;;;;;;53141;1251;1005141;-81
2024/01/23 00:59:15;;;;;;;;;;;;;;;;;;53205;1256;1045299;-83
2024/01/23 01:01:41;;;;;;;;;;;;;;;;;;53292;1253;1005554;-82
2024/01/23 01:04:08;;;;;;;;;;;;;;;;;;53215;1254;1061555;-80
2024/01/23 01:06:34;;;;;;;;;;;;;;;;;;52947;1254;1005509;-80
2024/01/23 01:09:02;;;;;;;;;;;;;;;;;;52952;1254;1058513;-80
2024/01/23 01:11:29;;;;;;;;;;;;;;;;;;52957;1257;1005221;-80
2024/01/23 01:13:56;;;;;;;;;;;;;;;;;;53041;1259;1057514;-82
2024/01/23 01:16:22;;;;;;;;;;;;;;;;;;53246;1254;1004648;-81
2024/01/23 01:18:49;;;;;;;;;;;;;;;;;;53217;1251;1038135;-79
2024/01/23 01:21:15;;;;;;;;;;;;;;;;;;53332;1251;1005372;-81
2024/01/23 01:23:42;;;;;;;;;;;;;;;;;;53268;1251;1046360;-80
2024/01/23 01:26:08;;;;;;;;;;;;;;;;;;53270;1253;1005062;-79
2024/01/23 01:28:35;;;;;;;;;;;;;;;;;;53226;1254;1060621;-81
2024/01/23 01:31:01;;;;;;;;;;;;;;;;;;53204;1254;1004715;-81
2024/01/23 01:33:28;;;;;;;;;;;;;;;;;;53280;1254;1056392;-81
2024/01/23 01:35:54;;;;;;;;;;;;;;;;;;53202;1254;1003820;-79
2024/01/23 01:38:21;;;;;;;;;;;;;;;;;;53197;1254;1057544;-81
2024/01/23 01:40:47;;;;;;;;;;;;;;;;;;53194;1256;1003816;-79
2024/01/23 01:43:14;;;;;;;;;;;;;;;;;;52997;1254;1038760;-79
2024/01/23 01:45:40;;;;;;;;;;;;;;;;;;52914;1254;1005040;-80
2024/01/23 01:48:07;;;;;;;;;;;;;;;;;;52948;1253;1046078;-81
2024/01/23 01:50:33;;;;;;;;;;;;;;;;;;53000;1254;1004825;-81
2024/01/23 01:53:01;;;;;;;;;;;;;;;;;;52974;1254;1061273;-80
2024/01/23 01:55:29;;;;;;;;;;;;;;;;;;52947;1255;1005280;-81
2024/01/23 01:57:55;;;;;;;;;;;;;;;;;;52957;1254;1056263;-79
2024/01/23 02:00:22;;;;;;;;;;;;;;;;;;52978;1253;1005459;-81
2024/01/23 02:02:50;;;;;;;;;;;;;;;;;;52942;1253;1059607;-81
2024/01/23 02:05:17;;;;;;;;;;;;;;;;;;52939;1255;1005500;-79
2024/01/23 02:07:44;;;;;;;;;;;;;;;;;;52973;1251;1038031;-81
2024/01/23 02:10:10;;;;;;;;;;;;;;;;;;52986;1255;1005475;-79
2024/01/23 02:12:37;;;;;;;;;;;;;;;;;;53193;1251;1045946;-79
2024/01/23 02:15:03;;;;;;;;;;;;;;;;;;53211;1251;1005436;-81
2024/01/23 02:17:30;;;;;;;;;;;;;;;;;;53044;1251;1061250;-80
2024/01/23 02:19:56;;;;;;;;;;;;;;;;;;53077;1251;1005250;-81
2024/01/23 02:22:23;;;;;;;;;;;;;;;;;;53014;1251;1057263;-80
2024/01/23 02:24:49;;;;;;;;;;;;;;;;;;53219;1251;1005381;-81
2024/01/23 02:27:16;;;;;;;;;;;;;;;;;;53222;1254;1058099;-81
2024/01/23 02:29:42;;;;;;;;;;;;;;;;;;53194;1255;1003867;-79
2024/01/23 02:32:08;;;;;;;;;;;;;;;;;;53188;1253;1039358;-81
2024/01/23 02:34:35;;;;;;;;;;;;;;;;;;52920;1251;1005584;-79
2024/01/23 02:37:01;;;;;;;;;;;;;;;;;;52993;1252;1045454;-80
2024/01/23 02:39:28;;;;;;;;;;;;;;;;;;53004;1252;1004453;-80
2024/01/23 02:41:54;;;;;;;;;;;;;;;;;;52865;1253;1061681;-81
2024/01/23 02:44:21;;;;;;;;;;;;;;;;;;52915;1251;1005100;-80
2024/01/23 02:46:47;;;;;;;;;;;;;;;;;;52926;1253;1057587;-81
2024/01/23 02:49:14;;;;;;;;;;;;;;;;;;53274;1252;1004838;-81
2024/01/23 02:51:40;;;;;;;;;;;;;;;;;;53062;1255;1058224;-80
2024/01/23 02:54:07;;;;;;;;;;;;;;;;;;52972;1253;1005198;-80
2024/01/23 02:56:33;;;;;;;;;;;;;;;;;;52999;1254;1039445;-80
2024/01/23 02:59:00;;;;;;;;;;;;;;;;;;52984;1256;1005478;-80
2024/01/23 03:01:26;;;;;;;;;;;;;;;;;;52983;1251;1046076;-79
2024/01/23 03:03:53;;;;;;;;;;;;;;;;;;52965;1251;1004872;-80
2024/01/23 03:06:19;;;;;;;;;;;;;;;;;;52995;1251;1061987;-80
2024/01/23 03:08:46;;;;;;;;;;;;;;;;;;52999;1251;1004603;-79
2024/01/23 03:11:13;;;;;;;;;;;;;;;;;;54176;1251;1056879;-81
2024/01/23 03:13:39;;;;;;;;;;;;;;;;;;54150;1251;1003430;-80
2024/01/23 03:16:06;;;;;;;;;;;;;;;;;;53777;1251;1058554;-81
2024/01/23 03:18:33;;;;;;;;;;;;;;;;;;52952;1254;1005308;-80
2024/01/23 03:20:59;;;;;;;;;;;;;;;;;;52963;1254;1038301;-79
2024/01/23 03:23:26;;;;;;;;;;;;;;;;;;53010;1251;1005150;-80
2024/01/23 03:25:52;;;;;;;;;;;;;;;;;;53074;1251;1046211;-80
2024/01/23 03:28:19;;;;;;;;;;;;;;;;;;53893;1251;1003644;-80
2024/01/23 03:30:46;;;;;;;;;;;;;;;;;;54149;1254;1061195;-80
2024/01/23 03:33:12;;;;;;;;;;;;;;;;;;54117;1252;1003463;-80
2024/01/23 03:35:38;;;;;;;;;;;;;;;;;;54131;1253;1056558;-80
2024/01/23 03:38:05;;;;;;;;;;;;;;;;;;53916;1252;1003468;-79
2024/01/23 03:40:31;;;;;;;;;;;;;;;;;;52946;1254;1058025;-80
2024/01/23 03:42:58;;;;;;;;;;;;;;;;;;53664;1253;1005624;-80
2024/01/23 03:45:24;;;;;;;;;;;;;;;;;;54124;1253;1039244;-80
2024/01/23 03:47:51;;;;;;;;;;;;;;;;;;54142;1254;1003620;-80
2024/01/23 03:50:17;;;;;;;;;;;;;;;;;;54195;1252;1044907;-80
2024/01/23 03:52:44;;;;;;;;;;;;;;;;;;54197;1252;1003513;-80
2024/01/23 03:55:11;;;;;;;;;;;;;;;;;;54159;1253;1061203;-80
2024/01/23 03:57:38;;;;;;;;;;;;;;;;;;53467;1253;1005521;-80
2024/01/23 04:00:05;;;;;;;;;;;;;;;;;;53047;1254;1057261;-79
2024/01/23 04:02:36;;;;;;;;;;;;;;;;;;52996;1251;1005001;-80
2024/01/23 04:05:03;;;;;;;;;;;;;;;;;;52964;1255;1058368;-80
2024/01/23 04:07:29;;;;;;;;;;;;;;;;;;52965;1255;1005533;-80
2024/01/23 04:09:56;;;;;;;;;;;;;;;;;;52941;1253;1039557;-80
2024/01/23 04:12:22;;;;;;;;;;;;;;;;;;52983;1253;1005565;-80
2024/01/23 04:14:49;;;;;;;;;;;;;;;;;;53013;1251;1045937;-81
2024/01/23 04:17:15;;;;;;;;;;;;;;;;;;53002;1251;1005642;-81
2024/01/23 04:19:42;;;;;;;;;;;;;;;;;;52983;1251;1061505;-81
2024/01/23 04:22:08;;;;;;;;;;;;;;;;;;52979;1250;1005204;-81
2024/01/23 04:24:35;;;;;;;;;;;;;;;;;;53257;1251;1056832;-81
2024/01/23 04:27:01;;;;;;;;;;;;;;;;;;53218;1254;1004880;-81
2024/01/23 04:29:28;;;;;;;;;;;;;;;;;;53192;1254;1058291;-81
2024/01/23 04:31:55;;;;;;;;;;;;;;;;;;53225;1252;1004863;-80
2024/01/23 04:34:21;;;;;;;;;;;;;;;;;;52959;1252;1038670;-81
2024/01/23 04:36:51;;;;;;;;;;;;;;;;;;52984;1253;1003742;-79
2024/01/23 04:39:18;;;;;;;;;;;;;;;;;;53229;1251;1046018;-80
2024/01/23 04:41:44;;;;;;;;;;;;;;;;;;53237;1251;1003654;-81
2024/01/23 04:44:10;;;;;;;;;;;;;;;;;;53203;1251;1062398;-80
2024/01/23 04:46:37;;;;;;;;;;;;;;;;;;53168;1251;1004610;-81
2024/01/23 04:49:03;;;;;;;;;;;;;;;;;;53236;1251;1056005;-81
2024/01/23 04:51:30;;;;;;;;;;;;;;;;;;53243;1251;1003845;-81
2024/01/23 04:53:56;;;;;;;;;;;;;;;;;;53241;1255;1058818;-80
2024/01/23 04:56:23;;;;;;;;;;;;;;;;;;53230;1252;1004716;-80
2024/01/23 04:58:49;;;;;;;;;;;;;;;;;;53218;1252;1038803;-81
2024/01/23 05:01:17;;;;;;;;;;;;;;;;;;53185;1253;1005517;-80
2024/01/23 05:03:44;;;;;;;;;;;;;;;;;;53206;1251;1046180;-80
2024/01/23 05:06:10;;;;;;;;;;;;;;;;;;53221;1252;1005649;-81
2024/01/23 05:08:37;;;;;;;;;;;;;;;;;;53247;1252;1061025;-81
2024/01/23 05:11:03;;;;;;;;;;;;;;;;;;53238;1251;1004809;-80
2024/01/23 05:13:30;;;;;;;;;;;;;;;;;;53166;1251;1056849;-79
2024/01/23 05:15:56;;;;;;;;;;;;;;;;;;53159;1251;1005205;-79
2024/01/23 05:18:23;;;;;;;;;;;;;;;;;;53235;1254;1057469;-81
2024/01/23 05:20:49;;;;;;;;;;;;;;;;;;53042;1254;1004853;-80
2024/01/23 05:23:16;;;;;;;;;;;;;;;;;;52946;1253;1039018;-81
2024/01/23 05:25:43;;;;;;;;;;;;;;;;;;52977;1253;1005547;-81
2024/01/23 05:28:09;;;;;;;;;;;;;;;;;;52933;1251;1045811;-81
2024/01/23 05:30:36;;;;;;;;;;;;;;;;;;53020;1251;1005286;-79
2024/01/23 05:33:02;;;;;;;;;;;;;;;;;;53026;1251;1061105;-81
2024/01/23 05:35:29;;;;;;;;;;;;;;;;;;52968;1251;1005462;-80
2024/01/23 05:37:55;;;;;;;;;;;;;;;;;;52972;1251;1057320;-80
2024/01/23 05:40:22;;;;;;;;;;;;;;;;;;53043;1251;1004803;-80
2024/01/23 05:42:49;;;;;;;;;;;;;;;;;;52986;1254;1057809;-81
2024/01/23 05:45:16;;;;;;;;;;;;;;;;;;53006;1254;1003883;-80
2024/01/23 05:47:42;;;;;;;;;;;;;;;;;;53003;1254;1038667;-80
2024/01/23 05:50:09;;;;;;;;;;;;;;;;;;53026;1251;1005289;-81
2024/01/23 05:52:35;;;;;;;;;;;;;;;;;;53017;1251;1045315;-80
2024/01/23 05:55:03;;;;;;;;;;;;;;;;;;53046;1251;1005483;-81
2024/01/23 05:57:30;;;;;;;;;;;;;;;;;;52979;1251;1061245;-81
2024/01/23 05:59:56;;;;;;;;;;;;;;;;;;53058;1251;1005580;-80
2024/01/23 06:02:23;;;;;;;;;;;;;;;;;;53069;1251;1056503;-81
2024/01/23 06:04:49;;;;;;;;;;;;;;;;;;53082;1251;1004620;-80
2024/01/23 06:07:16;;;;;;;;;;;;;;;;;;52996;1251;1058356;-81
2024/01/23 06:09:42;;;;;;;;;;;;;;;;;;53030;1251;1005092;-80
2024/01/23 06:12:09;;;;;;;;;;;;;;;;;;53047;1251;1038447;-80
2024/01/23 06:14:35;;;;;;;;;;;;;;;;;;53046;1252;1003773;-80
2024/01/23 06:17:02;;;;;;;;;;;;;;;;;;53068;1250;1045672;-80
2024/01/23 06:19:29;;;;;;;;;;;;;;;;;;53079;1251;1005184;-80
2024/01/23 06:21:55;;;;;;;;;;;;;;;;;;53022;1251;1061623;-80
2024/01/23 06:24:22;;;;;;;;;;;;;;;;;;54086;1251;1003380;-80
2024/01/23 06:26:48;;;;;;;;;;;;;;;;;;54162;1253;1057433;-81
2024/01/23 06:29:15;;;;;;;;;;;;;;;;;;54204;1250;1003206;-80
2024/01/23 06:31:43;;;;;;;;;;;;;;;;;;54166;1251;1057579;-80
2024/01/23 06:34:10;;;;;;;;;;;;;;;;;;54127;1251;1003527;-81
2024/01/23 06:36:37;;;;;;;;;;;;;;;;;;54171;1250;1003366;-80
2024/01/23 06:39:05;;;;;;;;;;;;;;;;;;54154;1251;1003362;-80
2024/01/23 06:41:31;;;;;;;;;;;;;;;;;;54161;1253;1038618;-81
2024/01/23 06:43:58;;;;;;;;;;;;;;;;;;54127;1251;1003216;-80
2024/01/23 06:46:25;;;;;;;;;;;;;;;;;;54214;1250;1044847;-80
2024/01/23 06:48:51;;;;;;;;;;;;;;;;;;53165;1251;1005302;-80
2024/01/23 06:51:18;;;;;;;;;;;;;;;;;;53043;1250;1061663;-79
2024/01/23 06:53:44;;;;;;;;;;;;;;;;;;53077;1251;1005064;-80
2024/01/23 06:56:11;;;;;;;;;;;;;;;;;;53177;1251;1058322;-81
2024/01/23 06:58:37;;;;;;;;;;;;;;;;;;53109;1251;1005366;-79
2024/01/23 07:01:03;;;;;;;;;;;;;;;;;;53041;1251;1058746;-79
2024/01/23 07:03:30;;;;;;;;;;;;;;;;;;53049;1250;1005405;-78
2024/01/23 07:05:56;;;;;;;;;;;;;;;;;;53117;1253;1038054;-80
2024/01/23 07:08:23;;;;;;;;;;;;;;;;;;53107;1251;1005512;-80
2024/01/23 07:10:50;;;;;;;;;;;;;;;;;;54105;1253;1045768;-81
2024/01/23 07:13:16;;;;;;;;;;;;;;;;;;54167;1251;1003561;-81
2024/01/23 07:15:43;;;;;;;;;;;;;;;;;;54178;1251;1061826;-80
2024/01/23 07:18:09;;;;;;;;;;;;;;;;;;54168;1251;1003249;-80
2024/01/23 07:20:36;;;;;;;;;;;;;;;;;;54139;1251;1056913;-81
2024/01/23 07:23:02;;;;;;;;;;;;;;;;;;54159;1251;1003518;-80
2024/01/23 07:25:30;;;;;;;;;;;;;;;;;;54156;1251;1057903;-80
2024/01/23 07:27:56;;;;;;;;;;;;;;;;;;54144;1255;1003074;-80
2024/01/23 07:30:23;;;;;;;;;;;;;;;;;;54152;1251;1038384;-81
2024/01/23 07:32:49;;;;;;;;;;;;;;;;;;54175;1252;1003361;-82
2024/01/23 07:35:16;;;;;;;;;;;;;;;;;;54160;1250;1045415;-79
2024/01/23 07:37:42;;;;;;;;;;;;;;;;;;54171;1251;1003426;-79
2024/01/23 07:40:09;;;;;;;;;;;;;;;;;;54169;1250;1061587;-78
2024/01/23 07:42:35;;;;;;;;;;;;;;;;;;54160;1252;1003095;-79
2024/01/23 07:45:02;;;;;;;;;;;;;;;;;;54204;1250;1057694;-79
2024/01/23 07:47:28;;;;;;;;;;;;;;;;;;54153;1251;1003399;-79
2024/01/23 07:49:54;;;;;;;;;;;;;;;;;;54083;1251;1058040;-79
2024/01/23 07:52:21;;;;;;;;;;;;;;;;;;54158;1250;1003425;-79
2024/01/23 07:54:48;;;;;;;;;;;;;;;;;;54129;1251;1038890;-79
2024/01/23 07:57:15;;;;;;;;;;;;;;;;;;54160;1251;1003146;-79
2024/01/23 07:59:41;;;;;;;;;;;;;;;;;;54124;1251;1045838;-80
2024/01/23 08:02:07;;;;;;;;;;;;;;;;;;54174;1251;1003326;-78
2024/01/23 08:04:34;;;;;;;;;;;;;;;;;;54169;1251;1061317;-78
2024/01/23 08:07:00;;;;;;;;;;;;;;;;;;54144;1254;1003102;-78
2024/01/23 08:09:27;;;;;;;;;;;;;;;;;;54158;1253;1057360;-79
2024/01/23 08:11:54;;;;;;;;;;;;;;;;;;54178;1251;1003248;-80
2024/01/23 08:14:20;;;;;;;;;;;;;;;;;;54138;1250;1058047;-79
2024/01/23 08:16:47;;;;;;;;;;;;;;;;;;54179;1250;1003390;-79
2024/01/23 08:19:13;;;;;;;;;;;;;;;;;;54168;1251;1039253;-80
2024/01/23 08:21:40;;;;;;;;;;;;;;;;;;54138;1251;1003253;-80
2024/01/23 08:24:07;;;;;;;;;;;;;;;;;;54200;1251;1046276;-80
2024/01/23 08:26:33;;;;;;;;;;;;;;;;;;54178;1251;1003415;-80
2024/01/23 08:28:59;;;;;;;;;;;;;;;;;;54176;1250;1061470;-80
2024/01/23 08:31:26;;;;;;;;;;;;;;;;;;54170;1251;1003356;-79
2024/01/23 08:33:53;;;;;;;;;;;;;;;;;;53547;1251;1057281;-81
2024/01/23 08:36:20;;;;;;;;;;;;;;;;;;53076;1251;1005190;-81
2024/01/23 08:38:46;;;;;;;;;;;;;;;;;;53209;1254;1058313;-80
2024/01/23 08:41:13;;;;;;;;;;;;;;;;;;54199;1249;1003509;-80
2024/01/23 08:43:39;;;;;;;;;;;;;;;;;;54178;1253;1038413;-80
2024/01/23 08:46:06;;;;;;;;;;;;;;;;;;54152;1254;1003282;-79
2024/01/23 08:48:32;;;;;;;;;;;;;;;;;;54165;1251;1045026;-79
2024/01/23 08:50:59;;;;;;;;;;;;;;;;;;54181;1252;1003322;-79
2024/01/23 08:53:25;;;;;;;;;;;;;;;;;;54174;1251;1061050;-79
2024/01/23 08:55:52;;;;;;;;;;;;;;;;;;54203;1251;1003349;-80
2024/01/23 08:58:18;;;;;;;;;;;;;;;;;;54122;1251;1057559;-78
2024/01/23 09:00:45;;;;;;;;;;;;;;;;;;54165;1250;1003208;-78
2024/01/23 09:03:12;;;;;;;;;;;;;;;;;;54221;1251;1058031;-79
2024/01/23 09:05:38;;;;;;;;;;;;;;;;;;54196;1250;1003322;-80
2024/01/23 09:08:05;;;;;;;;;;;;;;;;;;54182;1251;1037972;-78
2024/01/23 09:10:32;;;;;;;;;;;;;;;;;;54161;1251;1003115;-79
2024/01/23 09:12:58;;;;;;;;;;;;;;;;;;54173;1251;1045473;-80
2024/01/23 09:15:25;;;;;;;;;;;;;;;;;;54207;1251;1003922;-80
2024/01/23 09:17:51;;;;;;;;;;;;;;;;;;54181;1251;1061727;-80
2024/01/23 09:20:18;;;;;;;;;;;;;;;;;;54166;1251;1003169;-79
2024/01/23 09:22:44;;;;;;;;;;;;;;;;;;54185;1250;1057295;-80
2024/01/23 09:25:11;;;;;;;;;;;;;;;;;;54204;1250;1003451;-79
2024/01/23 09:27:37;;;;;;;;;;;;;;;;;;54137;1251;1057678;-79
2024/01/23 09:30:04;;;;;;;;;;;;;;;;;;54141;1251;1003466;-79
2024/01/23 09:32:30;;;;;;;;;;;;;;;;;;54147;1254;1038434;-80
2024/01/23 09:34:57;;;;;;;;;;;;;;;;;;54138;1251;1003150;-80
2024/01/23 09:37:23;;;;;;;;;;;;;;;;;;54213;1250;1045796;-79
2024/01/23 09:39:50;;;;;;;;;;;;;;;;;;53307;1251;1004950;-80
2024/01/23 09:42:20;;;;;;;;;;;;;;;;;;53156;1250;1061900;-78
2024/01/23 09:44:46;;;;;;;;;;;;;;;;;;53151;1251;1005153;-80
2024/01/23 09:47:13;;;;;;;;;;;;;;;;;;53166;1251;1056979;-79
2024/01/23 09:49:39;;;;;;;;;;;;;;;;;;53209;1251;1005136;-80
2024/01/23 09:52:06;;;;;;;;;;;;;;;;;;53137;1251;1058401;-81
2024/01/23 09:54:33;;;;;;;;;;;;;;;;;;53510;1254;1005219;-80
2024/01/23 09:57:00;;;;;;;;;;;;;;;;;;54182;1251;1038611;-79
2024/01/23 09:59:26;;;;;;;;;;;;;;;;;;54140;1251;1003263;-80
2024/01/23 10:01:53;;;;;;;;;;;;;;;;;;54180;1251;1045159;-78
2024/01/23 10:04:19;;;;;;;;;;;;;;;;;;54161;1251;1003477;-80
2024/01/23 10:06:46;;;;;;;;;;;;;;;;;;54161;1251;1061299;-78
2024/01/23 10:09:13;;;;;;;;;;;;;;;;;;54133;1255;1003165;-79
2024/01/23 10:11:39;;;;;;;;;;;;;;;;;;53741;1251;1057178;-79
2024/01/23 10:14:05;;;;;;;;;;;;;;;;;;53148;1251;1005525;-78
2024/01/23 10:16:32;;;;;;;;;;;;;;;;;;52974;1253;1058675;-79
2024/01/23 10:18:59;;;;;;;;;;;;;;;;;;52958;1251;1004887;-78
2024/01/23 10:21:26;;;;;;;;;;;;;;;;;;53052;1251;1039074;-79
2024/01/23 10:23:52;;;;;;;;;;;;;;;;;;53120;1251;1003819;-78
2024/01/23 10:26:19;;;;;;;;;;;;;;;;;;53159;1251;1045053;-80
2024/01/23 10:28:45;;;;;;;;;;;;;;;;;;53233;1251;1005336;-80
2024/01/23 10:31:11;;;;;;;;;;;;;;;;;;53106;1252;1062413;-79
2024/01/23 10:33:38;;;;;;;;;;;;;;;;;;53114;1251;1005482;-80
2024/01/23 10:36:05;;;;;;;;;;;;;;;;;;53139;1253;1055971;-79
2024/01/23 10:38:31;;;;;;;;;;;;;;;;;;53205;1253;1005686;-80
2024/01/23 10:40:58;;;;;;;;;;;;;;;;;;53184;1253;1057913;-80
2024/01/23 10:43:24;;;;;;;;;;;;;;;;;;53012;1254;1004649;-79
2024/01/23 10:45:51;;;;;;;;;;;;;;;;;;53103;1251;1038075;-79
2024/01/23 10:48:17;;;;;;;;;;;;;;;;;;53132;1251;1003858;-80
2024/01/23 10:50:44;;;;;;;;;;;;;;;;;;53137;1253;1045453;-80
2024/01/23 10:53:10;;;;;;;;;;;;;;;;;;53037;1251;1005554;-78
2024/01/23 10:55:37;;;;;;;;;;;;;;;;;;52998;1251;1061031;-80
2024/01/23 10:58:06;;;;;;;;;;;;;;;;;;53065;1254;1005053;-79
2024/01/23 11:00:33;;;;;;;;;;;;;;;;;;53106;1251;1057498;-80
2024/01/23 11:02:59;;;;;;;;;;;;;;;;;;53108;1251;1005444;-79
2024/01/23 11:05:26;;;;;;;;;;;;;;;;;;52983;1251;1058004;-79
2024/01/23 11:07:52;;;;;;;;;;;;;;;;;;53025;1253;1005040;-79
2024/01/23 11:10:21;;;;;;;;;;;;;;;;;;53110;1252;1038236;-79
2024/01/23 11:12:48;;;;;;;;;;;;;;;;;;53017;1251;1004510;-79
2024/01/23 11:15:14;;;;;;;;;;;;;;;;;;53014;1253;1005355;-79
2024/01/23 11:17:41;;;;;;;;;;;;;;;;;;53006;1252;1045369;-79
2024/01/23 11:20:08;;;;;;;;;;;;;;;;;;53101;1253;1004659;-79
2024/01/23 11:22:35;;;;;;;;;;;;;;;;;;53166;1251;1061324;-79
2024/01/23 11:25:03;;;;;;;;;;;;;;;;;;53002;1251;1005422;-79
2024/01/23 11:27:30;;;;;;;;;;;;;;;;;;53019;1251;1056564;-80
2024/01/23 11:29:57;;;;;;;;;;;;;;;;;;53118;1251;1005248;-79
2024/01/23 11:32:23;;;;;;;;;;;;;;;;;;52958;1253;1057519;-79
2024/01/23 11:34:50;;;;;;;;;;;;;;;;;;52964;1251;1005519;-80
2024/01/23 11:37:16;;;;;;;;;;;;;;;;;;52866;1253;1037747;-80
2024/01/23 11:39:45;;;;;;;;;;;;;;;;;;52993;1251;1005084;-79
2024/01/23 11:42:12;;;;;;;;;;;;;;;;;;53090;1250;1045519;-80
2024/01/23 11:44:39;;;;;;;;;;;;;;;;;;52965;1253;1005342;-79
2024/01/23 11:47:05;;;;;;;;;;;;;;;;;;53007;1253;1060966;-80
2024/01/23 11:49:32;;;;;;;;;;;;;;;;;;53046;1251;1004655;-79
2024/01/23 11:51:58;;;;;;;;;;;;;;;;;;52949;1251;1056930;-80
2024/01/23 11:54:25;;;;;;;;;;;;;;;;;;52972;1251;1005247;-81
2024/01/23 11:56:51;;;;;;;;;;;;;;;;;;52969;1253;1058869;-80
2024/01/23 11:59:18;;;;;;;;;;;;;;;;;;52993;1254;1004839;-80
2024/01/23 12:01:44;;;;;;;;;;;;;;;;;;52994;1253;1038167;-78
2024/01/23 12:04:11;;;;;;;;;;;;;;;;;;52964;1253;1005053;-79
2024/01/23 12:06:38;;;;;;;;;;;;;;;;;;53046;1253;1046320;-80
2024/01/23 12:09:04;;;;;;;;;;;;;;;;;;52995;1251;1004849;-80
2024/01/23 12:11:31;;;;;;;;;;;;;;;;;;53047;1253;1062528;-79
2024/01/23 12:13:57;;;;;;;;;;;;;;;;;;53026;1251;1005477;-78
2024/01/23 12:16:24;;;;;;;;;;;;;;;;;;52972;1255;1057227;-80
2024/01/23 12:18:50;;;;;;;;;;;;;;;;;;52963;1252;1005030;-79
2024/01/23 12:21:17;;;;;;;;;;;;;;;;;;53084;1251;1057453;-79
2024/01/23 12:23:43;;;;;;;;;;;;;;;;;;53197;1252;1004527;-78
2024/01/23 12:26:10;;;;;;;;;;;;;;;;;;53013;1254;1041174;-80
2024/01/23 12:28:37;;;;;;;;;;;;;;;;;;52998;1251;1003739;-79
2024/01/23 12:31:03;;;;;;;;;;;;;;;;;;53093;1253;1045991;-79
2024/01/23 12:33:30;;;;;;;;;;;;;;;;;;53026;1252;1004826;-80
2024/01/23 12:35:56;;;;;;;;;;;;;;;;;;52947;1253;1061735;-78
2024/01/23 12:38:23;;;;;;;;;;;;;;;;;;52965;1251;1005089;-80
2024/01/23 12:40:49;;;;;;;;;;;;;;;;;;53268;1253;1056840;-78
2024/01/23 12:43:16;;;;;;;;;;;;;;;;;;52924;1253;1005361;-78
2024/01/23 12:45:42;;;;;;;;;;;;;;;;;;52927;1254;1058528;-78
2024/01/23 12:48:10;;;;;;;;;;;;;;;;;;52976;1253;1003862;-79
2024/01/23 12:50:37;;;;;;;;;;;;;;;;;;53076;1255;1038506;-80
2024/01/23 12:53:04;;;;;;;;;;;;;;;;;;52958;1251;1004922;-79
2024/01/23 12:55:33;;;;;;;;;;;;;;;;;;53035;1253;1045996;-79
2024/01/23 12:57:59;;;;;;;;;;;;;;;;;;53043;1252;1005059;-79
2024/01/23 13:00:26;;;;;;;;;;;;;;;;;;53173;1253;1005364;-81
2024/01/23 13:02:52;;;;;;;;;;;;;;;;;;52985;1255;1062178;-81
2024/01/23 13:05:19;;;;;;;;;;;;;;;;;;52974;1253;1003725;-79
2024/01/23 13:07:45;;;;;;;;;;;;;;;;;;52959;1250;1057095;-80
2024/01/23 13:10:12;;;;;;;;;;;;;;;;;;53065;1250;1003752;-79
2024/01/23 13:12:39;;;;;;;;;;;;;;;;;;54147;1251;1058071;-79
2024/01/23 13:15:06;;;;;;;;;;;;;;;;;;54137;1251;1003443;-80
2024/01/23 13:17:32;;;;;;;;;;;;;;;;;;54159;1251;1038337;-80
2024/01/23 13:20:09;;;;;;;;;;;;;;;;;;54188;1251;1003365;-80
2024/01/23 13:22:39;;;;;;;;;;;;;;;;;;54213;1251;1046312;-80
2024/01/23 13:25:06;;;;;;;;;;;;;;;;;;54270;1251;1003297;-80
2024/01/23 13:27:33;;;;;;;;;;;;;;;;;;54129;1251;1003148;-80
2024/01/23 13:30:00;;;;;;;;;;;;;;;;;;54179;1251;1060790;-80
2024/01/23 13:32:27;;;;;;;;;;;;;;;;;;54182;1251;1003296;-80
2024/01/23 13:34:54;;;;;;;;;;;;;;;;;;54141;1251;1056579;-80
2024/01/23 13:37:20;;;;;;;;;;;;;;;;;;54091;1251;1003364;-80
2024/01/23 13:39:48;;;;;;;;;;;;;;;;;;53152;1251;1058151;-79
2024/01/23 13:42:14;;;;;;;;;;;;;;;;;;53169;1251;1004018;-80
2024/01/23 13:44:41;;;;;;;;;;;;;;;;;;53083;1254;1038615;-80
2024/01/23 13:47:07;;;;;;;;;;;;;;;;;;53092;1253;1003831;-79
2024/01/23 13:49:34;;;;;;;;;;;;;;;;;;53169;1254;1045618;-80
2024/01/23 13:52:00;;;;;;;;;;;;;;;;;;53177;1251;1004871;-80
2024/01/23 13:54:26;;;;;;;;;;;;;;;;;;53169;1250;1060982;-80
2024/01/23 13:56:53;;;;;;;;;;;;;;;;;;53141;1251;1004792;-80
2024/01/23 13:59:20;;;;;;;;;;;;;;;;;;53553;1251;1058029;-80
2024/01/23 14:01:46;;;;;;;;;;;;;;;;;;54203;1251;1003486;-80
2024/01/23 14:04:14;;;;;;;;;;;;;;;;;;54110;1256;1058283;-80
2024/01/23 14:06:40;;;;;;;;;;;;;;;;;;54195;1256;1003149;-80
2024/01/23 14:09:11;;;;;;;;;;;;;;;;;;53573;1251;1039051;-81
2024/01/23 14:11:39;;;;;;;;;;;;;;;;;;53133;1255;1038860;-79
2024/01/23 14:14:06;;;;;;;;;;;;;;;;;;53139;1251;1005320;-80
2024/01/23 14:16:32;;;;;;;;;;;;;;;;;;53166;1255;1004811;-80
2024/01/23 14:18:59;;;;;;;;;;;;;;;;;;53201;1251;1045938;-80
2024/01/23 14:21:26;;;;;;;;;;;;;;;;;;53291;1253;1004949;-80
2024/01/23 14:23:52;;;;;;;;;;;;;;;;;;53132;1252;1061494;-80
2024/01/23 14:26:18;;;;;;;;;;;;;;;;;;53076;1252;1004888;-80
2024/01/23 14:28:45;;;;;;;;;;;;;;;;;;53367;1253;1057740;-80
2024/01/23 14:31:11;;;;;;;;;;;;;;;;;;53498;1253;1004775;-80
2024/01/23 14:33:38;;;;;;;;;;;;;;;;;;53099;1250;1058625;-80
2024/01/23 14:36:06;;;;;;;;;;;;;;;;;;53153;1254;1005094;-80
2024/01/23 14:38:32;;;;;;;;;;;;;;;;;;54128;1253;1038011;-80
2024/01/23 14:40:59;;;;;;;;;;;;;;;;;;54118;1253;1003151;-81
2024/01/23 14:43:26;;;;;;;;;;;;;;;;;;54154;1251;1045775;-81
2024/01/23 14:45:52;;;;;;;;;;;;;;;;;;54173;1251;1003443;-80
2024/01/23 14:48:20;;;;;;;;;;;;;;;;;;54140;1255;1061323;-80
2024/01/23 14:50:47;;;;;;;;;;;;;;;;;;54117;1251;1003254;-81
2024/01/23 14:53:13;;;;;;;;;;;;;;;;;;54173;1253;1057483;-80
2024/01/23 14:55:40;;;;;;;;;;;;;;;;;;54187;1251;1003397;-80
2024/01/23 14:58:06;;;;;;;;;;;;;;;;;;54136;1256;1058510;-81
2024/01/23 15:00:33;;;;;;;;;;;;;;;;;;54122;1251;1003353;-80
2024/01/23 15:02:59;;;;;;;;;;;;;;;;;;54133;1253;1038334;-80
2024/01/23 15:05:26;;;;;;;;;;;;;;;;;;54129;1256;1003312;-80
2024/01/23 15:07:52;;;;;;;;;;;;;;;;;;54171;1253;1044910;-80
2024/01/23 15:10:19;;;;;;;;;;;;;;;;;;54171;1251;1003152;-80
2024/01/23 15:12:45;;;;;;;;;;;;;;;;;;54160;1253;1060641;-81
2024/01/23 15:15:12;;;;;;;;;;;;;;;;;;54149;1253;1003381;-81
2024/01/23 15:17:39;;;;;;;;;;;;;;;;;;54213;1251;1057198;-80
2024/01/23 15:20:05;;;;;;;;;;;;;;;;;;54176;1251;1003416;-80
2024/01/23 15:22:32;;;;;;;;;;;;;;;;;;54156;1251;1057290;-80
2024/01/23 15:24:58;;;;;;;;;;;;;;;;;;54163;1256;1003386;-80
2024/01/23 15:27:25;;;;;;;;;;;;;;;;;;54192;1251;1038575;-80
2024/01/23 15:29:51;;;;;;;;;;;;;;;;;;53925;1252;1003432;-80
2024/01/23 15:32:17;;;;;;;;;;;;;;;;;;53267;1253;1045269;-81
2024/01/23 15:34:44;;;;;;;;;;;;;;;;;;53342;1253;1005231;-80
2024/01/23 15:37:10;;;;;;;;;;;;;;;;;;53390;1253;1060422;-80
2024/01/23 15:39:37;;;;;;;;;;;;;;;;;;53393;1253;1003640;-80
2024/01/23 15:42:03;;;;;;;;;;;;;;;;;;53334;1254;1056386;-80
2024/01/23 15:44:30;;;;;;;;;;;;;;;;;;53295;1251;1004812;-80
2024/01/23 15:46:56;;;;;;;;;;;;;;;;;;53283;1255;1058341;-80
2024/01/23 15:49:23;;;;;;;;;;;;;;;;;;53149;1254;1005503;-80
2024/01/23 15:51:49;;;;;;;;;;;;;;;;;;52998;1254;1039396;-80
2024/01/23 15:54:16;;;;;;;;;;;;;;;;;;53056;1253;1004794;-80
2024/01/23 15:56:42;;;;;;;;;;;;;;;;;;53027;1256;1046543;-81
2024/01/23 15:59:09;;;;;;;;;;;;;;;;;;52984;1251;1005269;-81
2024/01/23 16:01:35;;;;;;;;;;;;;;;;;;52995;1252;1060827;-80
2024/01/23 16:04:02;;;;;;;;;;;;;;;;;;52999;1251;1005217;-80
2024/01/23 16:06:28;;;;;;;;;;;;;;;;;;53078;1255;1057124;-81